Ana Sayfa
METAR-TAF:

METAR-TAF

Havaalanları :

Palestine Municipal Airport

Palestine, Teksas, Amerika Birleşik Devletleri

Enlem: 31-46-46N, Boylam: 095-42-22W, yükseklik: 129 m

Güncel hava durumu gözlemi

Rapor saat 13:55 UTC de 15 dakika önce yapıldı.
Rüzgar güneydan 6 kt
Sıcaklık 20°C
Nem 88%
Basınç 1011 hPa
Görüş mesafesi: 11.3 km
1400 ft yükseklikte çok bulutlu

METAR: KPSN 091355Z AUTO 18006KT 7SM OVC014 20/18 A2985 RMK AO2 T02000181

Saat: 08:10 (14:10 UTC)


TAF: eksik

4.000'den fazla havaalanı için hava durumu gözlemleri ve tahminleri (METAR ve TAF raporları).

Kullanılabilir istasyonlar harita üzerinde sarı ve kırmızı noktalarla gösterilir.

İstasyonun adını görmek için fareyi noktanın üzerinde gezdirin.

Sonrasında hava gözlem ve tahminlerini görmek için tıklayın.

Haritayı değiştirmek için: yaklaştırmak için siyah artı işaretli yeşil düğmeye ve uzaklaştırmak için de eksi işaretli düğmeye hızla tıklayın; bitişik haritalar için yeşil okları kullanın.


METAR-TAF: